Airfield :
LOGIN :

Register | Disclaimer

   EN    FR    IT 

 










Legend :    VFR   Marginal VFR   IFR   Intensive IFR   Very Intensive IFR
Visi :
Ceiling :
>= 8 km
>= 3000ft
5 to 8 km
1000 to 3000 ft
1500m to 5 km
500 to 1000 ft
800 to 1500m
200 to 500 ft
< 800m
< 200 ft
Symbols :   Thunderstorms  Fog  Heavy snow  Heavy precipitations  Wind > 20 kt
SIGMETs :     Misc.  Thunderstorms  Icing  Turbulence  Mountain Waves  Volcanic Ashes







- Airport Elevation : 1585 ft
- IATA code : SIR


LSGS - Sion

CURRENT METAR :
  • 231750Z AUTO 09004KT 050V140 9999 NCD 07/00 Q1018

EXPIRED METARs :
  • 231720Z AUTO VRB02KT 9999 OVC090 08/00 Q1018
  • 231650Z AUTO VRB01KT 9999 BKN100 07/00 Q1018
  • 231620Z AUTO VRB01KT 9999 NCD 08/01 Q1018
  • 231550Z 00000KT 9999 BKN120 09/01 Q1017
  • 231520Z AUTO VRB01KT 9999 BKN120 10/01 Q1017

TAF TAF LSGS
Valid from the 23 at 15:00 until the 24 at 00:00 UTC


231425Z 2315/2324 VRB03KT 9999 SCT120
No reported NOTAMs for that airfield.



MET'MAP, your aeronautical weather chart ! - Copyright ORBIFLY December 2007 - Disclaimer

ORBIFLY MET'MAP TEAM :

Programming & Development : Alexandra Zaïnal
Concept & Development : Baudouin d'Aumeries
Co-Development & Prog : Marc-Olivier Méhu
Technical & hardware support : Manuel Goepfert

Contact : metmap@orbifly.com




SOURCES & CREDITS :

   NOAA